sensor_id;sensor_type;location;lat;lon;timestamp;pressure;altitude;pressure_sealevel;temperature
69545;BMP180;56766;52.260;20.746;2023-11-21T00:01:58;99664.40;;;-0.30
69545;BMP180;56766;52.260;20.746;2023-11-21T00:04:25;99672.40;;;-0.30
69545;BMP180;56766;52.260;20.746;2023-11-21T00:06:51;99682.40;;;-0.30
69545;BMP180;56766;52.260;20.746;2023-11-21T00:09:18;99677.40;;;-0.30
69545;BMP180;56766;52.260;20.746;2023-11-21T00:11:46;99681.40;;;-0.30
69545;BMP180;56766;52.260;20.746;2023-11-21T00:14:13;99686.80;;;-0.30
69545;BMP180;56766;52.260;20.746;2023-11-21T00:16:43;99689.80;;;-0.30
69545;BMP180;56766;52.260;20.746;2023-11-21T00:19:10;99693.80;;;-0.30
69545;BMP180;56766;52.260;20.746;2023-11-21T00:21:36;99688.60;;;-0.32
69545;BMP180;56766;52.260;20.746;2023-11-21T00:24:05;99689.60;;;-0.36
69545;BMP180;56766;52.260;20.746;2023-11-21T00:26:32;99691.00;;;-0.32
69545;BMP180;56766;52.260;20.746;2023-11-21T00:29:03;99691.60;;;-0.40
69545;BMP180;56766;52.260;20.746;2023-11-21T00:31:30;99693.00;;;-0.40
69545;BMP180;56766;52.260;20.746;2023-11-21T00:33:57;99692.60;;;-0.40
69545;BMP180;56766;52.260;20.746;2023-11-21T00:36:25;99696.80;;;-0.40
69545;BMP180;56766;52.260;20.746;2023-11-21T00:38:52;99694.20;;;-0.40
69545;BMP180;56766;52.260;20.746;2023-11-21T00:41:19;99696.00;;;-0.40
69545;BMP180;56766;52.260;20.746;2023-11-21T00:43:46;99699.00;;;-0.40
69545;BMP180;56766;52.260;20.746;2023-11-21T00:46:13;99695.00;;;-0.40
69545;BMP180;56766;52.260;20.746;2023-11-21T00:48:40;99698.40;;;-0.46
69545;BMP180;56766;52.260;20.746;2023-11-21T00:51:06;99694.00;;;-0.50
69545;BMP180;56766;52.260;20.746;2023-11-21T00:53:33;99697.80;;;-0.50
69545;BMP180;56766;52.260;20.746;2023-11-21T00:56:00;99702.80;;;-0.50
69545;BMP180;56766;52.260;20.746;2023-11-21T00:58:27;99709.20;;;-0.50
69545;BMP180;56766;52.260;20.746;2023-11-21T01:00:54;99706.40;;;-0.50
69545;BMP180;56766;52.260;20.746;2023-11-21T01:03:21;99710.60;;;-0.50
69545;BMP180;56766;52.260;20.746;2023-11-21T01:05:48;99715.20;;;-0.50
69545;BMP180;56766;52.260;20.746;2023-11-21T01:08:18;99714.60;;;-0.50
69545;BMP180;56766;52.260;20.746;2023-11-21T01:10:45;99718.80;;;-0.54
69545;BMP180;56766;52.260;20.746;2023-11-21T01:13:13;99720.20;;;-0.60
69545;BMP180;56766;52.260;20.746;2023-11-21T01:15:42;99719.60;;;-0.60
69545;BMP180;56766;52.260;20.746;2023-11-21T01:18:08;99724.20;;;-0.60
69545;BMP180;56766;52.260;20.746;2023-11-21T01:20:35;99723.40;;;-0.64
69545;BMP180;56766;52.260;20.746;2023-11-21T01:23:02;99722.80;;;-0.60
69545;BMP180;56766;52.260;20.746;2023-11-21T01:25:29;99727.00;;;-0.60
69545;BMP180;56766;52.260;20.746;2023-11-21T01:27:56;99731.60;;;-0.60
69545;BMP180;56766;52.260;20.746;2023-11-21T01:30:22;99728.20;;;-0.60
69545;BMP180;56766;52.260;20.746;2023-11-21T01:32:49;99725.80;;;-0.62
69545;BMP180;56766;52.260;20.746;2023-11-21T01:35:16;99725.80;;;-0.60
69545;BMP180;56766;52.260;20.746;2023-11-21T01:37:44;99727.60;;;-0.60
69545;BMP180;56766;52.260;20.746;2023-11-21T01:40:11;99732.20;;;-0.60
69545;BMP180;56766;52.260;20.746;2023-11-21T01:42:42;99734.80;;;-0.60
69545;BMP180;56766;52.260;20.746;2023-11-21T01:45:10;99732.80;;;-0.60
69545;BMP180;56766;52.260;20.746;2023-11-21T01:47:42;99737.00;;;-0.60
69545;BMP180;56766;52.260;20.746;2023-11-21T01:50:17;99733.60;;;-0.60
69545;BMP180;56766;52.260;20.746;2023-11-21T01:52:46;99743.60;;;-0.64
69545;BMP180;56766;52.260;20.746;2023-11-21T01:55:17;99748.40;;;-0.70
69545;BMP180;56766;52.260;20.746;2023-11-21T01:57:46;99745.80;;;-0.70
69545;BMP180;56766;52.260;20.746;2023-11-21T02:00:14;99743.00;;;-0.70
69545;BMP180;56766;52.260;20.746;2023-11-21T02:02:48;99742.00;;;-0.70
69545;BMP180;56766;52.260;20.746;2023-11-21T02:05:16;99740.20;;;-0.70
69545;BMP180;56766;52.260;20.746;2023-11-21T02:07:47;99735.60;;;-0.60
69545;BMP180;56766;52.260;20.746;2023-11-21T02:10:19;99735.20;;;-0.60
69545;BMP180;56766;52.260;20.746;2023-11-21T02:12:50;99737.60;;;-0.60
69545;BMP180;56766;52.260;20.746;2023-11-21T02:15:18;99736.40;;;-0.68
69545;BMP180;56766;52.260;20.746;2023-11-21T02:17:50;99745.80;;;-0.70
69545;BMP180;56766;52.260;20.746;2023-11-21T02:20:23;99747.80;;;-0.70
69545;BMP180;56766;52.260;20.746;2023-11-21T02:22:55;99746.80;;;-0.70
69545;BMP180;56766;52.260;20.746;2023-11-21T02:25:32;99752.00;;;-0.72
69545;BMP180;56766;52.260;20.746;2023-11-21T02:28:02;99749.60;;;-0.76
69545;BMP180;56766;52.260;20.746;2023-11-21T02:30:29;99750.00;;;-0.80
69545;BMP180;56766;52.260;20.746;2023-11-21T02:33:01;99746.20;;;-0.80
69545;BMP180;56766;52.260;20.746;2023-11-21T02:35:28;99748.20;;;-0.80
69545;BMP180;56766;52.260;20.746;2023-11-21T02:37:57;99749.20;;;-0.80
69545;BMP180;56766;52.260;20.746;2023-11-21T02:40:24;99755.20;;;-0.80
69545;BMP180;56766;52.260;20.746;2023-11-21T02:42:54;99752.80;;;-0.88
69545;BMP180;56766;52.260;20.746;2023-11-21T02:45:21;99763.80;;;-0.86
69545;BMP180;56766;52.260;20.746;2023-11-21T02:47:48;99767.40;;;-0.82
69545;BMP180;56766;52.260;20.746;2023-11-21T02:50:16;99764.80;;;-0.80
69545;BMP180;56766;52.260;20.746;2023-11-21T02:52:45;99762.40;;;-0.90
69545;BMP180;56766;52.260;20.746;2023-11-21T02:55:12;99765.80;;;-0.90
69545;BMP180;56766;52.260;20.746;2023-11-21T02:57:39;99764.60;;;-0.86
69545;BMP180;56766;52.260;20.746;2023-11-21T03:00:06;99768.00;;;-0.86
69545;BMP180;56766;52.260;20.746;2023-11-21T03:02:43;99771.80;;;-0.90
69545;BMP180;56766;52.260;20.746;2023-11-21T03:05:10;99771.20;;;-0.90
69545;BMP180;56766;52.260;20.746;2023-11-21T03:07:39;99766.80;;;-0.90
69545;BMP180;56766;52.260;20.746;2023-11-21T03:10:08;99762.00;;;-0.98
69545;BMP180;56766;52.260;20.746;2023-11-21T03:12:39;99756.80;;;-1.00
69545;BMP180;56766;52.260;20.746;2023-11-21T03:15:07;99757.40;;;-1.00
69545;BMP180;56766;52.260;20.746;2023-11-21T03:17:34;99756.40;;;-1.00
69545;BMP180;56766;52.260;20.746;2023-11-21T03:20:01;99763.20;;;-1.00
69545;BMP180;56766;52.260;20.746;2023-11-21T03:22:31;99763.40;;;-1.00
69545;BMP180;56766;52.260;20.746;2023-11-21T03:24:57;99761.40;;;-1.00
69545;BMP180;56766;52.260;20.746;2023-11-21T03:27:24;99767.40;;;-1.00
69545;BMP180;56766;52.260;20.746;2023-11-21T03:29:51;99767.80;;;-1.00
69545;BMP180;56766;52.260;20.746;2023-11-21T03:32:18;99770.80;;;-1.00
69545;BMP180;56766;52.260;20.746;2023-11-21T03:34:57;99778.00;;;-1.00
69545;BMP180;56766;52.260;20.746;2023-11-21T03:37:24;99781.00;;;-1.00
69545;BMP180;56766;52.260;20.746;2023-11-21T03:39:57;99782.40;;;-1.00
69545;BMP180;56766;52.260;20.746;2023-11-21T03:42:24;99786.60;;;-1.08
69545;BMP180;56766;52.260;20.746;2023-11-21T03:44:53;99788.60;;;-1.10
69545;BMP180;56766;52.260;20.746;2023-11-21T03:47:19;99791.20;;;-1.10
69545;BMP180;56766;52.260;20.746;2023-11-21T03:49:46;99798.00;;;-1.10
69545;BMP180;56766;52.260;20.746;2023-11-21T03:52:13;99801.00;;;-1.10
69545;BMP180;56766;52.260;20.746;2023-11-21T03:54:40;99797.40;;;-1.00
69545;BMP180;56766;52.260;20.746;2023-11-21T03:57:06;99798.80;;;-0.90
69545;BMP180;56766;52.260;20.746;2023-11-21T03:59:33;99801.80;;;-0.90
69545;BMP180;56766;52.260;20.746;2023-11-21T04:02:00;99802.00;;;-0.90
69545;BMP180;56766;52.260;20.746;2023-11-21T04:04:27;99806.40;;;-0.90
69545;BMP180;56766;52.260;20.746;2023-11-21T04:06:53;99803.60;;;-0.90
69545;BMP180;56766;52.260;20.746;2023-11-21T04:09:20;99806.40;;;-0.90
69545;BMP180;56766;52.260;20.746;2023-11-21T04:11:47;99805.00;;;-0.90
69545;BMP180;56766;52.260;20.746;2023-11-21T04:14:14;99810.40;;;-0.90
69545;BMP180;56766;52.260;20.746;2023-11-21T04:16:41;99815.80;;;-0.90
69545;BMP180;56766;52.260;20.746;2023-11-21T04:19:08;99821.60;;;-0.90
69545;BMP180;56766;52.260;20.746;2023-11-21T04:21:42;99824.60;;;-1.00
69545;BMP180;56766;52.260;20.746;2023-11-21T04:24:09;99822.80;;;-1.00
69545;BMP180;56766;52.260;20.746;2023-11-21T04:26:36;99829.60;;;-1.10
69545;BMP180;56766;52.260;20.746;2023-11-21T04:29:03;99832.00;;;-1.04
69545;BMP180;56766;52.260;20.746;2023-11-21T04:31:31;99831.20;;;-1.02
69545;BMP180;56766;52.260;20.746;2023-11-21T04:34:00;99829.00;;;-1.00
69545;BMP180;56766;52.260;20.746;2023-11-21T04:36:28;99833.80;;;-1.06
69545;BMP180;56766;52.260;20.746;2023-11-21T04:38:55;99838.20;;;-1.10
69545;BMP180;56766;52.260;20.746;2023-11-21T04:41:21;99840.80;;;-1.00
69545;BMP180;56766;52.260;20.746;2023-11-21T04:43:48;99842.80;;;-1.00
69545;BMP180;56766;52.260;20.746;2023-11-21T04:46:15;99844.40;;;-1.00
69545;BMP180;56766;52.260;20.746;2023-11-21T04:48:42;99843.80;;;-1.10
69545;BMP180;56766;52.260;20.746;2023-11-21T04:51:09;99838.00;;;-1.10
69545;BMP180;56766;52.260;20.746;2023-11-21T04:53:38;99847.20;;;-1.10
69545;BMP180;56766;52.260;20.746;2023-11-21T04:56:06;99848.20;;;-1.10
69545;BMP180;56766;52.260;20.746;2023-11-21T04:58:33;99848.40;;;-1.10
69545;BMP180;56766;52.260;20.746;2023-11-21T05:00:59;99855.80;;;-1.12
69545;BMP180;56766;52.260;20.746;2023-11-21T05:03:26;99854.20;;;-1.20
69545;BMP180;56766;52.260;20.746;2023-11-21T05:05:52;99853.20;;;-1.18
69545;BMP180;56766;52.260;20.746;2023-11-21T05:08:19;99862.00;;;-1.10
69545;BMP180;56766;52.260;20.746;2023-11-21T05:10:48;99861.60;;;-1.20
69545;BMP180;56766;52.260;20.746;2023-11-21T05:13:16;99870.80;;;-1.20
69545;BMP180;56766;52.260;20.746;2023-11-21T05:15:44;99869.40;;;-1.20
69545;BMP180;56766;52.260;20.746;2023-11-21T05:18:11;99875.20;;;-1.18
69545;BMP180;56766;52.260;20.746;2023-11-21T05:20:40;99867.60;;;-1.20
69545;BMP180;56766;52.260;20.746;2023-11-21T05:23:07;99863.00;;;-1.20
69545;BMP180;56766;52.260;20.746;2023-11-21T05:25:34;99870.20;;;-1.20
69545;BMP180;56766;52.260;20.746;2023-11-21T05:28:01;99875.00;;;-1.22
69545;BMP180;56766;52.260;20.746;2023-11-21T05:30:30;99880.60;;;-1.30
69545;BMP180;56766;52.260;20.746;2023-11-21T05:32:57;99876.40;;;-1.30
69545;BMP180;56766;52.260;20.746;2023-11-21T05:35:24;99882.20;;;-1.30
69545;BMP180;56766;52.260;20.746;2023-11-21T05:37:50;99885.20;;;-1.30
69545;BMP180;56766;52.260;20.746;2023-11-21T05:40:17;99889.20;;;-1.30
69545;BMP180;56766;52.260;20.746;2023-11-21T05:42:44;99889.00;;;-1.30
69545;BMP180;56766;52.260;20.746;2023-11-21T05:45:11;99891.20;;;-1.30
69545;BMP180;56766;52.260;20.746;2023-11-21T05:47:44;99893.00;;;-1.30
69545;BMP180;56766;52.260;20.746;2023-11-21T05:50:15;99887.00;;;-1.30
69545;BMP180;56766;52.260;20.746;2023-11-21T05:52:47;99887.40;;;-1.30
69545;BMP180;56766;52.260;20.746;2023-11-21T05:55:14;99894.20;;;-1.34
69545;BMP180;56766;52.260;20.746;2023-11-21T05:57:43;99899.80;;;-1.34
69545;BMP180;56766;52.260;20.746;2023-11-21T06:00:13;99908.40;;;-1.40
69545;BMP180;56766;52.260;20.746;2023-11-21T06:02:59;99910.60;;;-1.40
69545;BMP180;56766;52.260;20.746;2023-11-21T06:05:26;99912.40;;;-1.40
69545;BMP180;56766;52.260;20.746;2023-11-21T06:07:55;99915.80;;;-1.40
69545;BMP180;56766;52.260;20.746;2023-11-21T06:10:25;99921.40;;;-1.34
69545;BMP180;56766;52.260;20.746;2023-11-21T06:12:53;99929.00;;;-1.40
69545;BMP180;56766;52.260;20.746;2023-11-21T06:15:19;99926.40;;;-1.40
69545;BMP180;56766;52.260;20.746;2023-11-21T06:17:49;99929.20;;;-1.36
69545;BMP180;56766;52.260;20.746;2023-11-21T06:20:19;99931.00;;;-1.30
69545;BMP180;56766;52.260;20.746;2023-11-21T06:22:48;99929.60;;;-1.30
69545;BMP180;56766;52.260;20.746;2023-11-21T06:25:15;99936.80;;;-1.30
69545;BMP180;56766;52.260;20.746;2023-11-21T06:27:45;99934.00;;;-1.30
69545;BMP180;56766;52.260;20.746;2023-11-21T06:30:14;99937.80;;;-1.30
69545;BMP180;56766;52.260;20.746;2023-11-21T06:32:42;99939.60;;;-1.30
69545;BMP180;56766;52.260;20.746;2023-11-21T06:35:12;99942.60;;;-1.30
69545;BMP180;56766;52.260;20.746;2023-11-21T06:37:39;99943.20;;;-1.30
69545;BMP180;56766;52.260;20.746;2023-11-21T06:40:07;99942.20;;;-1.30
69545;BMP180;56766;52.260;20.746;2023-11-21T06:42:34;99950.40;;;-1.20
69545;BMP180;56766;52.260;20.746;2023-11-21T06:45:01;99945.40;;;-1.20
69545;BMP180;56766;52.260;20.746;2023-11-21T06:47:30;99944.40;;;-1.20
69545;BMP180;56766;52.260;20.746;2023-11-21T06:49:58;99955.00;;;-1.22
69545;BMP180;56766;52.260;20.746;2023-11-21T06:52:25;99954.80;;;-1.20
69545;BMP180;56766;52.260;20.746;2023-11-21T06:54:52;99959.00;;;-1.20
69545;BMP180;56766;52.260;20.746;2023-11-21T06:57:18;99973.60;;;-1.30
69545;BMP180;56766;52.260;20.746;2023-11-21T06:59:45;99977.40;;;-1.30
69545;BMP180;56766;52.260;20.746;2023-11-21T07:02:12;99973.60;;;-1.30
69545;BMP180;56766;52.260;20.746;2023-11-21T07:04:38;99978.40;;;-1.30
69545;BMP180;56766;52.260;20.746;2023-11-21T07:07:06;99976.40;;;-1.28
69545;BMP180;56766;52.260;20.746;2023-11-21T07:09:34;99979.00;;;-1.26
69545;BMP180;56766;52.260;20.746;2023-11-21T07:12:00;99983.20;;;-1.28
69545;BMP180;56766;52.260;20.746;2023-11-21T07:14:28;99989.80;;;-1.20
69545;BMP180;56766;52.260;20.746;2023-11-21T07:16:54;99987.00;;;-1.20
69545;BMP180;56766;52.260;20.746;2023-11-21T07:19:21;99986.00;;;-1.24
69545;BMP180;56766;52.260;20.746;2023-11-21T07:21:48;99993.00;;;-1.20
69545;BMP180;56766;52.260;20.746;2023-11-21T07:24:17;99995.80;;;-1.24
69545;BMP180;56766;52.260;20.746;2023-11-21T07:26:44;99995.00;;;-1.26
69545;BMP180;56766;52.260;20.746;2023-11-21T07:29:11;99996.80;;;-1.30
69545;BMP180;56766;52.260;20.746;2023-11-21T07:31:38;99995.60;;;-1.30
69545;BMP180;56766;52.260;20.746;2023-11-21T07:34:04;99993.80;;;-1.30
69545;BMP180;56766;52.260;20.746;2023-11-21T07:36:31;99996.80;;;-1.30
69545;BMP180;56766;52.260;20.746;2023-11-21T07:38:58;99998.40;;;-1.30
69545;BMP180;56766;52.260;20.746;2023-11-21T07:41:24;99999.80;;;-1.30
69545;BMP180;56766;52.260;20.746;2023-11-21T07:43:51;100001.20;;;-1.30
69545;BMP180;56766;52.260;20.746;2023-11-21T07:46:18;100008.20;;;-1.30
69545;BMP180;56766;52.260;20.746;2023-11-21T07:48:45;100008.00;;;-1.26
69545;BMP180;56766;52.260;20.746;2023-11-21T07:51:12;100008.80;;;-1.20
69545;BMP180;56766;52.260;20.746;2023-11-21T07:53:40;100001.40;;;-1.20
69545;BMP180;56766;52.260;20.746;2023-11-21T07:56:08;100010.20;;;-1.20
69545;BMP180;56766;52.260;20.746;2023-11-21T07:58:36;100014.20;;;-1.20
69545;BMP180;56766;52.260;20.746;2023-11-21T08:01:04;100017.60;;;-1.20
69545;BMP180;56766;52.260;20.746;2023-11-21T08:03:31;100017.00;;;-1.14
69545;BMP180;56766;52.260;20.746;2023-11-21T08:05:59;100012.00;;;-1.10
69545;BMP180;56766;52.260;20.746;2023-11-21T08:08:26;100018.80;;;-1.10
69545;BMP180;56766;52.260;20.746;2023-11-21T08:10:54;100016.40;;;-1.10
69545;BMP180;56766;52.260;20.746;2023-11-21T08:13:28;100012.00;;;-1.10
69545;BMP180;56766;52.260;20.746;2023-11-21T08:15:57;100022.60;;;-1.04
69545;BMP180;56766;52.260;20.746;2023-11-21T08:18:28;100023.80;;;-1.00
69545;BMP180;56766;52.260;20.746;2023-11-21T08:20:57;100021.60;;;-1.00
69545;BMP180;56766;52.260;20.746;2023-11-21T08:23:24;100025.60;;;-1.00
69545;BMP180;56766;52.260;20.746;2023-11-21T08:25:55;100028.20;;;-1.00
69545;BMP180;56766;52.260;20.746;2023-11-21T08:28:22;100026.40;;;-1.00
69545;BMP180;56766;52.260;20.746;2023-11-21T08:30:52;100022.40;;;-0.90
69545;BMP180;56766;52.260;20.746;2023-11-21T08:33:20;100028.80;;;-0.90
69545;BMP180;56766;52.260;20.746;2023-11-21T08:35:48;100029.20;;;-0.90
69545;BMP180;56766;52.260;20.746;2023-11-21T08:38:15;100041.00;;;-0.90
69545;BMP180;56766;52.260;20.746;2023-11-21T08:40:41;100047.00;;;-0.90
69545;BMP180;56766;52.260;20.746;2023-11-21T08:43:08;100041.80;;;-0.86
69545;BMP180;56766;52.260;20.746;2023-11-21T08:45:35;100055.00;;;-0.80
69545;BMP180;56766;52.260;20.746;2023-11-21T08:48:02;100059.20;;;-0.80
69545;BMP180;56766;52.260;20.746;2023-11-21T08:50:29;100063.60;;;-0.80
69545;BMP180;56766;52.260;20.746;2023-11-21T08:52:56;100064.00;;;-0.70
69545;BMP180;56766;52.260;20.746;2023-11-21T08:55:22;100069.00;;;-0.76
69545;BMP180;56766;52.260;20.746;2023-11-21T08:57:49;100067.00;;;-0.70
69545;BMP180;56766;52.260;20.746;2023-11-21T09:00:16;100066.20;;;-0.70
69545;BMP180;56766;52.260;20.746;2023-11-21T09:02:44;100073.60;;;-0.66
69545;BMP180;56766;52.260;20.746;2023-11-21T09:05:13;100072.40;;;-0.60
69545;BMP180;56766;52.260;20.746;2023-11-21T09:07:41;100073.40;;;-0.60
69545;BMP180;56766;52.260;20.746;2023-11-21T09:10:09;100069.80;;;-0.60
69545;BMP180;56766;52.260;20.746;2023-11-21T09:12:37;100076.00;;;-0.50
69545;BMP180;56766;52.260;20.746;2023-11-21T09:15:06;100085.00;;;-0.50
69545;BMP180;56766;52.260;20.746;2023-11-21T09:17:34;100080.80;;;-0.50
69545;BMP180;56766;52.260;20.746;2023-11-21T09:20:01;100082.00;;;-0.50
69545;BMP180;56766;52.260;20.746;2023-11-21T09:22:30;100083.00;;;-0.50
69545;BMP180;56766;52.260;20.746;2023-11-21T09:24:58;100079.00;;;-0.50
69545;BMP180;56766;52.260;20.746;2023-11-21T09:27:25;100080.00;;;-0.50
69545;BMP180;56766;52.260;20.746;2023-11-21T09:29:55;100082.20;;;-0.40
69545;BMP180;56766;52.260;20.746;2023-11-21T09:32:21;100079.40;;;-0.40
69545;BMP180;56766;52.260;20.746;2023-11-21T09:34:51;100088.00;;;-0.30
69545;BMP180;56766;52.260;20.746;2023-11-21T09:37:17;100082.80;;;-0.40
69545;BMP180;56766;52.260;20.746;2023-11-21T09:39:45;100080.80;;;-0.40
69545;BMP180;56766;52.260;20.746;2023-11-21T09:42:25;100078.00;;;-0.38
69545;BMP180;56766;52.260;20.746;2023-11-21T09:47:46;100081.20;;;-0.28
69545;BMP180;56766;52.260;20.746;2023-11-21T09:50:18;100081.40;;;-0.20
69545;BMP180;56766;52.260;20.746;2023-11-21T09:55:45;100078.00;;;-0.20
69545;BMP180;56766;52.260;20.746;2023-11-21T09:58:14;100081.80;;;-0.20
69545;BMP180;56766;52.260;20.746;2023-11-21T10:00:44;100086.00;;;-0.20
69545;BMP180;56766;52.260;20.746;2023-11-21T10:03:11;100082.20;;;-0.20
69545;BMP180;56766;52.260;20.746;2023-11-21T10:05:43;100088.60;;;-0.18
69545;BMP180;56766;52.260;20.746;2023-11-21T10:08:12;100089.40;;;-0.20
69545;BMP180;56766;52.260;20.746;2023-11-21T10:10:51;100093.00;;;-0.20
69545;BMP180;56766;52.260;20.746;2023-11-21T10:13:20;100090.60;;;-0.14
69545;BMP180;56766;52.260;20.746;2023-11-21T10:15:51;100093.80;;;-0.18
69545;BMP180;56766;52.260;20.746;2023-11-21T10:18:20;100100.00;;;-0.20
69545;BMP180;56766;52.260;20.746;2023-11-21T10:20:50;100096.20;;;-0.20
69545;BMP180;56766;52.260;20.746;2023-11-21T10:23:21;100098.80;;;-0.20
69545;BMP180;56766;52.260;20.746;2023-11-21T10:25:50;100095.80;;;-0.10
69545;BMP180;56766;52.260;20.746;2023-11-21T10:28:19;100099.40;;;-0.10
69545;BMP180;56766;52.260;20.746;2023-11-21T10:30:47;100103.00;;;-0.10
69545;BMP180;56766;52.260;20.746;2023-11-21T10:33:13;100101.80;;;-0.10
69545;BMP180;56766;52.260;20.746;2023-11-21T10:35:45;100112.00;;;-0.10
69545;BMP180;56766;52.260;20.746;2023-11-21T10:38:21;100113.00;;;-0.10
69545;BMP180;56766;52.260;20.746;2023-11-21T10:40:52;100117.00;;;-0.20
69545;BMP180;56766;52.260;20.746;2023-11-21T10:43:18;100118.00;;;-0.20
69545;BMP180;56766;52.260;20.746;2023-11-21T10:45:45;100115.20;;;-0.20
69545;BMP180;56766;52.260;20.746;2023-11-21T10:48:15;100113.40;;;-0.20
69545;BMP180;56766;52.260;20.746;2023-11-21T10:50:44;100109.80;;;-0.14
69545;BMP180;56766;52.260;20.746;2023-11-21T10:53:11;100112.80;;;-0.10
69545;BMP180;56766;52.260;20.746;2023-11-21T10:55:39;100118.80;;;-0.10
69545;BMP180;56766;52.260;20.746;2023-11-21T10:58:06;100119.20;;;-0.10
69545;BMP180;56766;52.260;20.746;2023-11-21T11:00:33;100122.20;;;-0.10
69545;BMP180;56766;52.260;20.746;2023-11-21T11:03:02;100117.00;;;-0.10
69545;BMP180;56766;52.260;20.746;2023-11-21T11:05:29;100119.40;;;-0.10
69545;BMP180;56766;52.260;20.746;2023-11-21T11:08:11;100120.00;;;-0.10
69545;BMP180;56766;52.260;20.746;2023-11-21T11:10:38;100120.80;;;-0.10
69545;BMP180;56766;52.260;20.746;2023-11-21T11:13:06;100119.80;;;-0.10
69545;BMP180;56766;52.260;20.746;2023-11-21T11:15:33;100121.40;;;-0.10
69545;BMP180;56766;52.260;20.746;2023-11-21T11:18:02;100127.40;;;-0.16
69545;BMP180;56766;52.260;20.746;2023-11-21T11:20:38;100122.60;;;-0.20
69545;BMP180;56766;52.260;20.746;2023-11-21T11:26:20;100127.80;;;-0.30
69545;BMP180;56766;52.260;20.746;2023-11-21T11:34:55;100123.80;;;-0.40
69545;BMP180;56766;52.260;20.746;2023-11-21T11:37:23;100127.00;;;-0.40
69545;BMP180;56766;52.260;20.746;2023-11-21T11:39:50;100129.00;;;-0.40
69545;BMP180;56766;52.260;20.746;2023-11-21T11:42:18;100135.20;;;-0.40
69545;BMP180;56766;52.260;20.746;2023-11-21T11:44:48;100133.00;;;-0.40
69545;BMP180;56766;52.260;20.746;2023-11-21T11:47:28;100136.20;;;-0.40
69545;BMP180;56766;52.260;20.746;2023-11-21T11:50:07;100137.00;;;-0.42
69545;BMP180;56766;52.260;20.746;2023-11-21T11:52:43;100138.20;;;-0.40
69545;BMP180;56766;52.260;20.746;2023-11-21T11:55:13;100142.20;;;-0.40
69545;BMP180;56766;52.260;20.746;2023-11-21T11:57:42;100134.40;;;-0.40
69545;BMP180;56766;52.260;20.746;2023-11-21T12:00:22;100137.00;;;-0.40
69545;BMP180;56766;52.260;20.746;2023-11-21T12:03:03;100143.80;;;-0.30
69545;BMP180;56766;52.260;20.746;2023-11-21T12:05:33;100134.60;;;-0.30
69545;BMP180;56766;52.260;20.746;2023-11-21T12:08:06;100144.40;;;-0.30
69545;BMP180;56766;52.260;20.746;2023-11-21T12:10:37;100149.60;;;-0.22
69545;BMP180;56766;52.260;20.746;2023-11-21T12:13:10;100146.40;;;-0.20
69545;BMP180;56766;52.260;20.746;2023-11-21T12:15:39;100148.20;;;-0.20
69545;BMP180;56766;52.260;20.746;2023-11-21T12:18:08;100150.00;;;-0.20
69545;BMP180;56766;52.260;20.746;2023-11-21T12:20:34;100160.80;;;-0.20
69545;BMP180;56766;52.260;20.746;2023-11-21T12:23:13;100160.80;;;-0.20
69545;BMP180;56766;52.260;20.746;2023-11-21T12:25:41;100154.20;;;-0.20
69545;BMP180;56766;52.260;20.746;2023-11-21T12:28:28;100151.00;;;-0.20
69545;BMP180;56766;52.260;20.746;2023-11-21T12:30:55;100158.80;;;-0.20
69545;BMP180;56766;52.260;20.746;2023-11-21T12:33:23;100159.60;;;-0.20
69545;BMP180;56766;52.260;20.746;2023-11-21T12:35:52;100164.00;;;-0.20
69545;BMP180;56766;52.260;20.746;2023-11-21T12:38:20;100159.80;;;-0.10
69545;BMP180;56766;52.260;20.746;2023-11-21T12:40:47;100168.40;;;-0.10
69545;BMP180;56766;52.260;20.746;2023-11-21T12:43:13;100166.20;;;-0.08
69545;BMP180;56766;52.260;20.746;2023-11-21T12:45:40;100172.20;;;-0.10
69545;BMP180;56766;52.260;20.746;2023-11-21T12:48:15;100174.40;;;-0.10
69545;BMP180;56766;52.260;20.746;2023-11-21T12:50:48;100173.80;;;-0.10
69545;BMP180;56766;52.260;20.746;2023-11-21T12:53:19;100170.40;;;-0.10
69545;BMP180;56766;52.260;20.746;2023-11-21T12:55:46;100179.80;;;-0.20
69545;BMP180;56766;52.260;20.746;2023-11-21T12:58:17;100176.20;;;-0.20
69545;BMP180;56766;52.260;20.746;2023-11-21T13:00:48;100176.20;;;-0.20
69545;BMP180;56766;52.260;20.746;2023-11-21T13:03:17;100183.20;;;-0.24
69545;BMP180;56766;52.260;20.746;2023-11-21T13:05:48;100188.00;;;-0.30
69545;BMP180;56766;52.260;20.746;2023-11-21T13:08:22;100187.20;;;-0.30
69545;BMP180;56766;52.260;20.746;2023-11-21T13:10:56;100183.60;;;-0.30
69545;BMP180;56766;52.260;20.746;2023-11-21T13:13:25;100189.40;;;-0.30
69545;BMP180;56766;52.260;20.746;2023-11-21T13:15:59;100198.80;;;-0.30
69545;BMP180;56766;52.260;20.746;2023-11-21T13:18:32;100202.00;;;-0.40
69545;BMP180;56766;52.260;20.746;2023-11-21T13:21:03;100198.60;;;-0.42
69545;BMP180;56766;52.260;20.746;2023-11-21T13:23:36;100203.80;;;-0.50
69545;BMP180;56766;52.260;20.746;2023-11-21T13:26:04;100208.40;;;-0.50
69545;BMP180;56766;52.260;20.746;2023-11-21T13:28:32;100211.20;;;-0.60
69545;BMP180;56766;52.260;20.746;2023-11-21T13:31:01;100215.20;;;-0.68
69545;BMP180;56766;52.260;20.746;2023-11-21T13:33:36;100214.20;;;-0.70
69545;BMP180;56766;52.260;20.746;2023-11-21T13:36:07;100224.20;;;-0.70
69545;BMP180;56766;52.260;20.746;2023-11-21T13:38:35;100230.60;;;-0.72
69545;BMP180;56766;52.260;20.746;2023-11-21T13:41:04;100229.80;;;-0.70
69545;BMP180;56766;52.260;20.746;2023-11-21T13:43:34;100232.80;;;-0.70
69545;BMP180;56766;52.260;20.746;2023-11-21T13:46:00;100246.00;;;-0.70
69545;BMP180;56766;52.260;20.746;2023-11-21T13:48:39;100249.80;;;-0.70
69545;BMP180;56766;52.260;20.746;2023-11-21T13:51:09;100257.40;;;-0.70
69545;BMP180;56766;52.260;20.746;2023-11-21T13:53:48;100260.60;;;-0.70
69545;BMP180;56766;52.260;20.746;2023-11-21T13:56:17;100272.00;;;-0.70
69545;BMP180;56766;52.260;20.746;2023-11-21T13:58:48;100273.00;;;-0.76
69545;BMP180;56766;52.260;20.746;2023-11-21T14:01:20;100282.20;;;-0.80
69545;BMP180;56766;52.260;20.746;2023-11-21T14:03:57;100285.60;;;-0.90
69545;BMP180;56766;52.260;20.746;2023-11-21T14:06:29;100295.00;;;-0.90
69545;BMP180;56766;52.260;20.746;2023-11-21T14:09:02;100300.00;;;-0.90
69545;BMP180;56766;52.260;20.746;2023-11-21T14:11:33;100297.60;;;-0.98
69545;BMP180;56766;52.260;20.746;2023-11-21T14:14:00;100302.60;;;-1.00
69545;BMP180;56766;52.260;20.746;2023-11-21T14:16:28;100311.00;;;-1.00